Time;durP1;ratioP1;P1;durP2;ratioP2;P2;SDS_P1;SDS_P2;PMS_P1;PMS_P2;Temp;Humidity;BMP_temperature;BMP_pressure;BME280_temperature;BME280_humidity;BME280_pressure;Samples;Min_cycle;Max_cycle;Signal;HPM_P1;HPM_P2
2022/05/06 00:02:02;;;;;;;14.35;8.25;;;;;;;;;;5055539;28;20111;-82
2022/05/06 00:04:28;;;;;;;15.63;8.55;;;;;;;;;;5055904;28;20025;-82
2022/05/06 00:06:53;;;;;;;17.50;8.98;;;;;;;;;;5056261;28;20036;-83
2022/05/06 00:09:19;;;;;;;14.60;8.98;;;;;;;;;;5022299;28;20041;-83
2022/05/06 00:11:44;;;;;;;16.33;8.98;;;;;;;;;;5055345;28;20371;-83
2022/05/06 00:14:10;;;;;;;16.48;8.50;;;;;;;;;;5055058;28;20389;-82
2022/05/06 00:16:36;;;;;;;14.80;8.68;;;;;;;;;;5055272;28;20028;-83
2022/05/06 00:19:01;;;;;;;13.65;8.75;;;;;;;;;;5055154;28;20095;-84
2022/05/06 00:21:26;;;;;;;17.10;8.95;;;;;;;;;;5054886;28;20055;-84
2022/05/06 00:23:52;;;;;;;14.07;8.52;;;;;;;;;;5054890;28;20056;-83
2022/05/06 00:26:18;;;;;;;14.02;8.35;;;;;;;;;;5057076;28;20025;-82
2022/05/06 00:28:44;;;;;;;15.13;7.72;;;;;;;;;;5056134;28;20385;-84
2022/05/06 00:31:09;;;;;;;12.73;7.97;;;;;;;;;;5054887;28;20025;-83
2022/05/06 00:33:34;;;;;;;13.25;8.23;;;;;;;;;;5054908;28;20132;-83
2022/05/06 00:36:01;;;;;;;14.57;8.15;;;;;;;;;;5054491;28;20056;-85
2022/05/06 00:38:27;;;;;;;12.75;8.23;;;;;;;;;;5054737;28;20028;-81
2022/05/06 00:40:53;;;;;;;14.38;8.55;;;;;;;;;;5055233;28;20025;-84
2022/05/06 00:43:19;;;;;;;17.42;8.80;;;;;;;;;;5038234;28;20048;-82
2022/05/06 00:45:54;;;;;;;13.40;8.15;;;;;;;;;;5055792;28;20028;-82
2022/05/06 00:48:30;;;;;;;12.82;8.15;;;;;;;;;;5054680;28;20025;-82
2022/05/06 00:50:57;;;;;;;15.13;8.15;;;;;;;;;;5054215;28;20025;-82
2022/05/06 00:53:23;;;;;;;16.27;8.57;;;;;;;;;;5055614;28;20588;-82
2022/05/06 00:55:49;;;;;;;14.70;8.65;;;;;;;;;;5055596;28;20112;-82
2022/05/06 00:58:14;;;;;;;16.95;8.25;;;;;;;;;;5053761;28;20021;-82
2022/05/06 01:00:40;;;;;;;13.57;8.27;;;;;;;;;;5054271;28;20032;-82
2022/05/06 01:03:05;;;;;;;14.77;8.60;;;;;;;;;;5054386;28;20025;-82
2022/05/06 01:05:31;;;;;;;14.27;8.30;;;;;;;;;;5037446;28;20087;-81
2022/05/06 01:07:58;;;;;;;13.00;8.25;;;;;;;;;;5056537;28;20032;-81
2022/05/06 01:10:23;;;;;;;15.23;8.18;;;;;;;;;;5054007;28;20033;-82
2022/05/06 01:12:49;;;;;;;18.05;8.75;;;;;;;;;;5053950;28;20046;-82
2022/05/06 01:15:22;;;;;;;12.98;7.88;;;;;;;;;;5055177;28;20036;-82
2022/05/06 01:17:48;;;;;;;16.90;9.68;;;;;;;;;;5055146;28;20464;-82
2022/05/06 01:20:16;;;;;;;17.95;8.93;;;;;;;;;;5054867;28;20021;-82
2022/05/06 01:22:45;;;;;;;15.90;9.05;;;;;;;;;;5070379;28;20025;-82
2022/05/06 01:25:11;;;;;;;17.02;10.18;;;;;;;;;;5070696;28;20029;-82
2022/05/06 01:27:37;;;;;;;17.58;8.57;;;;;;;;;;5054411;28;20027;-82
2022/05/06 01:30:04;;;;;;;16.75;8.68;;;;;;;;;;5053716;28;20033;-82
2022/05/06 01:32:29;;;;;;;19.48;10.05;;;;;;;;;;5054896;28;20029;-82
2022/05/06 01:34:55;;;;;;;17.73;9.35;;;;;;;;;;5036884;28;20028;-82
2022/05/06 01:37:21;;;;;;;18.20;9.57;;;;;;;;;;5053958;28;20033;-82
2022/05/06 01:39:48;;;;;;;16.10;8.70;;;;;;;;;;5053882;28;20511;-82
2022/05/06 01:42:14;;;;;;;17.08;9.27;;;;;;;;;;5053868;28;20025;-82
2022/05/06 01:44:42;;;;;;;14.48;9.07;;;;;;;;;;5037145;28;20090;-82
2022/05/06 01:47:12;;;;;;;16.45;9.25;;;;;;;;;;5037321;28;20079;-83
2022/05/06 01:49:38;;;;;;;19.17;10.15;;;;;;;;;;5053041;28;20028;-82
2022/05/06 01:52:04;;;;;;;16.20;9.63;;;;;;;;;;5053445;28;20021;-82
2022/05/06 01:54:29;;;;;;;23.23;10.35;;;;;;;;;;5020530;28;20039;-82
2022/05/06 01:56:55;;;;;;;19.13;11.18;;;;;;;;;;5069907;28;20033;-82
2022/05/06 01:59:20;;;;;;;18.55;10.88;;;;;;;;;;5053557;28;20323;-82
2022/05/06 02:01:46;;;;;;;19.65;10.48;;;;;;;;;;5053234;28;20017;-82
2022/05/06 02:06:55;;;;;;;14.18;9.68;;;;;;;;;;5067982;28;20086;-82
2022/05/06 02:09:21;;;;;;;17.48;10.52;;;;;;;;;;5053411;28;20032;-82
2022/05/06 02:11:46;;;;;;;16.95;10.18;;;;;;;;;;5054236;28;20036;-82
2022/05/06 02:14:12;;;;;;;19.30;9.70;;;;;;;;;;5054401;28;20474;-82
2022/05/06 02:16:37;;;;;;;16.63;10.35;;;;;;;;;;5036476;28;20454;-82
2022/05/06 02:19:06;;;;;;;20.27;9.93;;;;;;;;;;5053885;28;20474;-82
2022/05/06 02:21:31;;;;;;;22.38;9.27;;;;;;;;;;5053020;28;20082;-82
2022/05/06 02:23:57;;;;;;;16.65;9.43;;;;;;;;;;5052867;28;20033;-82
2022/05/06 02:26:22;;;;;;;17.60;9.70;;;;;;;;;;5020121;28;20320;-82
2022/05/06 02:28:48;;;;;;;16.60;9.68;;;;;;;;;;5053142;28;20061;-82
2022/05/06 02:33:57;;;;;;;16.30;9.38;;;;;;;;;;5053020;28;20044;-82
2022/05/06 02:36:22;;;;;;;14.48;9.13;;;;;;;;;;5053945;28;20029;-82
2022/05/06 02:38:48;;;;;;;26.27;9.63;;;;;;;;;;5053924;28;20381;-82
2022/05/06 02:41:16;;;;;;;16.23;9.10;;;;;;;;;;5053959;28;20028;-83
2022/05/06 02:43:42;;;;;;;17.30;9.70;;;;;;;;;;5052817;28;20192;-82
2022/05/06 02:46:08;;;;;;;18.67;9.43;;;;;;;;;;5052526;28;20111;-82
2022/05/06 02:48:33;;;;;;;14.20;9.00;;;;;;;;;;5052975;28;20128;-81
2022/05/06 02:50:59;;;;;;;18.48;8.82;;;;;;;;;;5052583;28;20462;-82
2022/05/06 02:53:25;;;;;;;14.88;8.25;;;;;;;;;;5052654;28;20462;-83
2022/05/06 02:55:50;;;;;;;18.45;9.55;;;;;;;;;;5053119;28;20099;-82
2022/05/06 02:58:16;;;;;;;15.60;9.52;;;;;;;;;;5052495;28;20036;-82
2022/05/06 03:00:41;;;;;;;15.15;9.15;;;;;;;;;;5052347;28;20040;-82
2022/05/06 03:03:07;;;;;;;16.27;9.30;;;;;;;;;;5020021;28;20091;-82
2022/05/06 03:05:32;;;;;;;18.73;9.73;;;;;;;;;;5053709;28;20040;-83
2022/05/06 03:07:58;;;;;;;16.50;8.80;;;;;;;;;;5053725;28;20032;-81
2022/05/06 03:10:24;;;;;;;17.65;9.40;;;;;;;;;;5053722;28;20359;-82
2022/05/06 03:12:50;;;;;;;20.65;9.80;;;;;;;;;;5052375;28;20041;-82
2022/05/06 03:15:15;;;;;;;17.65;8.43;;;;;;;;;;5068743;28;20442;-82
2022/05/06 03:17:41;;;;;;;19.10;8.93;;;;;;;;;;5053510;28;20029;-83
2022/05/06 03:20:08;;;;;;;17.08;8.73;;;;;;;;;;5053152;28;20062;-82
2022/05/06 03:22:42;;;;;;;14.93;8.95;;;;;;;;;;5057420;28;20025;-83
2022/05/06 03:25:09;;;;;;;17.17;8.70;;;;;;;;;;5056644;28;20074;-82
2022/05/06 03:30:19;;;;;;;14.02;7.95;;;;;;;;;;5057212;28;20401;-81
2022/05/06 03:32:45;;;;;;;14.00;7.80;;;;;;;;;;5039962;28;20028;-82
2022/05/06 03:35:10;;;;;;;13.82;8.38;;;;;;;;;;5039594;28;20029;-81
2022/05/06 03:37:38;;;;;;;14.63;8.43;;;;;;;;;;5055938;28;20108;-83
2022/05/06 03:40:07;;;;;;;19.73;10.70;;;;;;;;;;5039778;28;20025;-82
2022/05/06 03:42:32;;;;;;;20.85;11.88;;;;;;;;;;5057543;28;20029;-82
2022/05/06 03:44:59;;;;;;;28.20;12.07;;;;;;;;;;5055616;28;20470;-83
2022/05/06 03:47:25;;;;;;;19.98;12.02;;;;;;;;;;5055649;28;20106;-84
2022/05/06 03:51:20;;;;;;;20.83;10.80;;;;;;;;;;5057036;28;20374;-82
2022/05/06 03:52:35;;;;;;;24.70;11.15;;;;;;;;;;5056846;28;20021;-84
2022/05/06 03:55:01;;;;;;;19.77;10.55;;;;;;;;;;5055942;28;20074;-84
2022/05/06 03:57:27;;;;;;;19.20;10.27;;;;;;;;;;5072303;28;20055;-83
2022/05/06 03:59:53;;;;;;;21.10;9.77;;;;;;;;;;5038674;28;20024;-81
2022/05/06 04:02:19;;;;;;;16.33;9.85;;;;;;;;;;5038980;28;20028;-83
2022/05/06 04:04:44;;;;;;;15.77;9.98;;;;;;;;;;5056562;28;20021;-85
2022/05/06 04:07:09;;;;;;;14.95;9.60;;;;;;;;;;5056628;28;20033;-82
2022/05/06 04:09:35;;;;;;;17.15;10.27;;;;;;;;;;5057344;28;20028;-81
2022/05/06 04:12:00;;;;;;;16.02;10.38;;;;;;;;;;5056773;28;20025;-83
2022/05/06 04:14:26;;;;;;;21.10;10.70;;;;;;;;;;5054897;28;20429;-82
2022/05/06 04:16:51;;;;;;;23.65;10.90;;;;;;;;;;5056412;28;20032;-82
2022/05/06 04:19:17;;;;;;;19.58;10.82;;;;;;;;;;5055120;28;20025;-81
2022/05/06 04:24:26;;;;;;;14.65;8.95;;;;;;;;;;5055176;28;20122;-83
2022/05/06 04:26:52;;;;;;;24.35;9.98;;;;;;;;;;5022304;28;20063;-83
2022/05/06 04:29:17;;;;;;;16.50;9.52;;;;;;;;;;5057700;28;20047;-83
2022/05/06 04:31:43;;;;;;;14.27;8.73;;;;;;;;;;5054509;28;20111;-83
2022/05/06 04:34:08;;;;;;;16.35;9.10;;;;;;;;;;5055905;28;20036;-82
2022/05/06 04:36:34;;;;;;;16.85;9.88;;;;;;;;;;5055072;28;20035;-84
2022/05/06 04:38:59;;;;;;;15.00;9.27;;;;;;;;;;5054846;28;20739;-82
2022/05/06 04:41:25;;;;;;;17.85;9.85;;;;;;;;;;5055926;28;20119;-83
2022/05/06 04:43:50;;;;;;;20.95;10.88;;;;;;;;;;5054710;28;20353;-84
2022/05/06 04:46:15;;;;;;;18.48;10.30;;;;;;;;;;5055017;28;20056;-81
2022/05/06 04:48:41;;;;;;;19.83;10.98;;;;;;;;;;5054710;28;20408;-81
2022/05/06 04:51:06;;;;;;;27.80;11.45;;;;;;;;;;5057823;28;20025;-82
2022/05/06 04:53:32;;;;;;;17.77;10.00;;;;;;;;;;5055694;28;20032;-82
2022/05/06 04:55:57;;;;;;;18.27;9.70;;;;;;;;;;5038067;28;20100;-82
2022/05/06 04:58:23;;;;;;;22.10;10.30;;;;;;;;;;5054162;28;20420;-83
2022/05/06 05:00:49;;;;;;;16.02;8.60;;;;;;;;;;5055598;28;20025;-84
2022/05/06 05:03:15;;;;;;;18.33;8.82;;;;;;;;;;5055833;28;20025;-83
2022/05/06 05:05:40;;;;;;;15.77;8.77;;;;;;;;;;5055482;28;20029;-82
2022/05/06 05:08:08;;;;;;;13.65;7.85;;;;;;;;;;5054366;28;20029;-84
2022/05/06 05:10:34;;;;;;;12.52;7.43;;;;;;;;;;5058433;28;20048;-81
2022/05/06 05:13:00;;;;;;;12.50;7.38;;;;;;;;;;5055544;28;20044;-83
2022/05/06 05:15:25;;;;;;;12.23;7.38;;;;;;;;;;5055527;28;20123;-81
2022/05/06 05:17:51;;;;;;;16.17;7.00;;;;;;;;;;5054248;28;20434;-83
2022/05/06 05:20:16;;;;;;;10.68;6.65;;;;;;;;;;5054278;28;20033;-82
2022/05/06 05:22:42;;;;;;;13.82;7.30;;;;;;;;;;5054282;28;20028;-81
2022/05/06 05:25:08;;;;;;;12.27;7.22;;;;;;;;;;5055284;28;20059;-84
2022/05/06 05:27:34;;;;;;;13.02;7.20;;;;;;;;;;5070211;28;20036;-82
2022/05/06 05:30:00;;;;;;;11.85;7.10;;;;;;;;;;5055841;28;20037;-83
2022/05/06 05:32:25;;;;;;;12.65;7.57;;;;;;;;;;5055324;28;20064;-83
2022/05/06 05:34:51;;;;;;;17.98;7.18;;;;;;;;;;5054842;28;20032;-83
2022/05/06 05:37:17;;;;;;;13.82;7.53;;;;;;;;;;5037232;28;20021;-81
2022/05/06 05:39:42;;;;;;;17.20;7.88;;;;;;;;;;5054827;28;20082;-83
2022/05/06 05:42:08;;;;;;;12.23;7.45;;;;;;;;;;5036664;28;20040;-82
2022/05/06 05:50:02;;;;;;;19.77;7.07;;;;;;;;;;5054513;28;20446;-85
2022/05/06 05:52:28;;;;;;;13.82;6.70;;;;;;;;;;5055715;28;20056;-83
2022/05/06 05:54:54;;;;;;;13.80;6.90;;;;;;;;;;5053003;28;20021;-82
2022/05/06 05:57:20;;;;;;;15.02;6.93;;;;;;;;;;5054527;28;20470;-82
2022/05/06 05:59:47;;;;;;;16.85;7.25;;;;;;;;;;5037037;28;20021;-82
2022/05/06 06:02:12;;;;;;;16.13;7.22;;;;;;;;;;5054524;28;20111;-83
2022/05/06 06:04:39;;;;;;;13.50;6.80;;;;;;;;;;5053162;28;20052;-83
2022/05/06 06:07:04;;;;;;;13.00;6.75;;;;;;;;;;5053530;28;20044;-82
2022/05/06 06:09:32;;;;;;;14.02;7.22;;;;;;;;;;5052854;28;20033;-83
2022/05/06 06:11:57;;;;;;;13.73;7.13;;;;;;;;;;5040769;28;20028;-83
2022/05/06 06:14:23;;;;;;;12.35;7.20;;;;;;;;;;5052918;28;20055;-82
2022/05/06 06:16:50;;;;;;;17.45;7.32;;;;;;;;;;5054170;28;20033;-82
2022/05/06 06:19:16;;;;;;;14.75;7.43;;;;;;;;;;5054241;28;20028;-83
2022/05/06 06:21:41;;;;;;;23.85;8.10;;;;;;;;;;5036653;28;20561;-84
2022/05/06 06:24:07;;;;;;;14.40;7.20;;;;;;;;;;5053016;28;20029;-84
2022/05/06 06:26:33;;;;;;;17.52;7.90;;;;;;;;;;5054022;28;20047;-83
2022/05/06 06:28:58;;;;;;;12.30;7.43;;;;;;;;;;5052702;28;20071;-83
2022/05/06 06:31:24;;;;;;;14.30;7.28;;;;;;;;;;5056893;28;20504;-84
2022/05/06 06:33:50;;;;;;;24.13;8.40;;;;;;;;;;5057536;28;20060;-82
2022/05/06 06:36:15;;;;;;;18.23;7.80;;;;;;;;;;5053998;28;20025;-84
2022/05/06 06:38:41;;;;;;;13.98;7.32;;;;;;;;;;5036041;28;20415;-83
2022/05/06 06:41:06;;;;;;;13.25;6.60;;;;;;;;;;5053048;28;20025;-83
2022/05/06 06:43:32;;;;;;;15.65;7.38;;;;;;;;;;5052956;28;20031;-82
2022/05/06 06:45:57;;;;;;;16.95;7.22;;;;;;;;;;5052567;28;20389;-84
2022/05/06 06:48:24;;;;;;;12.38;6.80;;;;;;;;;;5052795;28;20025;-84
2022/05/06 06:50:50;;;;;;;13.75;7.25;;;;;;;;;;5036399;28;20486;-85
2022/05/06 06:53:16;;;;;;;14.25;6.63;;;;;;;;;;5059862;28;20056;-82
2022/05/06 06:55:42;;;;;;;11.38;7.07;;;;;;;;;;5054145;28;20374;-85
2022/05/06 06:58:07;;;;;;;15.95;6.68;;;;;;;;;;5057770;28;20033;-85
2022/05/06 07:00:33;;;;;;;11.63;7.25;;;;;;;;;;5056866;28;20040;-83
2022/05/06 07:02:58;;;;;;;11.63;6.95;;;;;;;;;;5057813;28;20033;-84
2022/05/06 07:05:24;;;;;;;11.00;6.70;;;;;;;;;;5057649;28;20025;-83
2022/05/06 07:13:18;;;;;;;15.00;7.57;;;;;;;;;;5059355;28;20071;-84
2022/05/06 07:15:43;;;;;;;11.85;6.72;;;;;;;;;;5057589;28;20448;-83
2022/05/06 07:18:09;;;;;;;17.30;7.85;;;;;;;;;;5057411;28;20035;-81
2022/05/06 07:20:34;;;;;;;17.98;7.10;;;;;;;;;;5057375;28;20421;-84
2022/05/06 07:23:00;;;;;;;15.27;7.43;;;;;;;;;;5056616;28;20025;-81
2022/05/06 07:25:26;;;;;;;12.45;7.50;;;;;;;;;;5057436;28;20020;-84
2022/05/06 07:27:51;;;;;;;13.98;8.20;;;;;;;;;;5057308;28;20051;-86
2022/05/06 07:30:17;;;;;;;16.77;8.38;;;;;;;;;;5057198;28;20041;-84
2022/05/06 07:32:42;;;;;;;15.10;7.35;;;;;;;;;;5058793;28;20029;-84
2022/05/06 07:35:08;;;;;;;23.33;8.55;;;;;;;;;;5057983;28;20020;-82
2022/05/06 07:37:34;;;;;;;15.10;8.20;;;;;;;;;;5039483;28;20112;-84
2022/05/06 07:40:00;;;;;;;13.27;7.63;;;;;;;;;;5039447;28;20020;-82
2022/05/06 07:42:28;;;;;;;13.10;8.07;;;;;;;;;;5055979;28;20587;-83
2022/05/06 07:44:55;;;;;;;15.05;8.60;;;;;;;;;;5057130;28;20051;-84
2022/05/06 07:47:20;;;;;;;23.75;8.70;;;;;;;;;;5039345;28;20029;-81
2022/05/06 07:49:45;;;;;;;17.75;8.48;;;;;;;;;;5072242;28;20512;-83
2022/05/06 07:52:11;;;;;;;13.82;8.20;;;;;;;;;;5060152;28;20025;-83
2022/05/06 07:54:36;;;;;;;17.52;8.63;;;;;;;;;;5063020;28;20032;-84
2022/05/06 07:57:02;;;;;;;17.90;8.73;;;;;;;;;;5056789;28;20062;-83
2022/05/06 07:59:28;;;;;;;14.88;8.20;;;;;;;;;;5055679;28;20079;-84
2022/05/06 08:04:37;;;;;;;15.15;7.80;;;;;;;;;;5056768;28;20128;-84
2022/05/06 08:07:06;;;;;;;17.55;8.77;;;;;;;;;;5038608;28;20052;-84
2022/05/06 08:09:32;;;;;;;18.98;7.85;;;;;;;;;;5055062;28;20119;-80
2022/05/06 08:11:58;;;;;;;16.35;8.30;;;;;;;;;;5057497;28;20082;-81
2022/05/06 08:14:23;;;;;;;13.68;8.05;;;;;;;;;;5062509;28;20053;-84
2022/05/06 08:16:50;;;;;;;21.27;8.80;;;;;;;;;;5055590;28;20135;-84
2022/05/06 08:19:16;;;;;;;15.93;8.57;;;;;;;;;;5055449;28;20033;-84
2022/05/06 08:21:42;;;;;;;20.98;8.27;;;;;;;;;;5038595;28;20029;-84
2022/05/06 08:24:08;;;;;;;20.08;9.13;;;;;;;;;;5054988;28;20477;-83
2022/05/06 08:26:33;;;;;;;19.02;8.05;;;;;;;;;;5056144;28;20056;-84
2022/05/06 08:28:59;;;;;;;18.98;9.10;;;;;;;;;;5055739;28;20041;-84
2022/05/06 08:31:24;;;;;;;14.00;8.55;;;;;;;;;;5055210;28;20036;-83
2022/05/06 08:33:50;;;;;;;13.90;8.07;;;;;;;;;;5056784;28;20031;-81
2022/05/06 08:36:15;;;;;;;11.98;7.45;;;;;;;;;;5055803;28;20512;-84
2022/05/06 08:38:42;;;;;;;16.65;7.82;;;;;;;;;;5055233;28;20115;-83
2022/05/06 08:41:09;;;;;;;14.13;7.65;;;;;;;;;;5054772;28;20079;-82
2022/05/06 08:43:35;;;;;;;15.52;8.25;;;;;;;;;;5054974;28;20029;-83
2022/05/06 08:51:45;;;;;;;13.43;8.40;;;;;;;;;;5002573;28;20026;-81
2022/05/06 08:54:11;;;;;;;13.60;7.38;;;;;;;;;;5046464;28;20041;-86
2022/05/06 08:56:36;;;;;;;17.55;7.65;;;;;;;;;;5038746;28;20029;-84
2022/05/06 08:59:02;;;;;;;14.25;8.30;;;;;;;;;;5037836;28;20423;-81
2022/05/06 09:01:27;;;;;;;17.67;8.38;;;;;;;;;;5021543;28;20024;-84
2022/05/06 09:03:53;;;;;;;14.07;8.13;;;;;;;;;;5037519;28;20056;-81
2022/05/06 09:06:19;;;;;;;12.95;8.15;;;;;;;;;;5054129;28;20480;-83
2022/05/06 09:08:45;;;;;;;13.10;7.93;;;;;;;;;;5055385;28;20025;-82
2022/05/06 09:11:11;;;;;;;16.33;8.00;;;;;;;;;;5054310;28;20398;-83
2022/05/06 09:13:36;;;;;;;16.92;8.45;;;;;;;;;;5054273;28;20036;-85
2022/05/06 09:16:54;;;;;;;16.98;7.93;;;;;;;;;;5039030;28;20374;-81
2022/05/06 09:19:17;;;;;;;12.65;7.25;;;;;;;;;;5052965;28;20025;-83
2022/05/06 09:21:58;;;;;;;16.58;7.40;;;;;;;;;;5054142;28;20067;-84
2022/05/06 09:24:25;;;;;;;12.07;7.20;;;;;;;;;;5055337;28;20057;-83
2022/05/06 09:27:03;;;;;;;14.57;7.43;;;;;;;;;;5021380;28;20028;-83
2022/05/06 09:29:35;;;;;;;13.73;7.05;;;;;;;;;;5053949;28;20127;-84
2022/05/06 09:32:19;;;;;;;11.38;7.30;;;;;;;;;;5055021;28;20076;-82
2022/05/06 09:34:51;;;;;;;12.20;7.35;;;;;;;;;;5060060;28;20017;-87
2022/05/06 09:37:38;;;;;;;16.08;7.43;;;;;;;;;;5058820;28;20037;-84
2022/05/06 09:40:11;;;;;;;10.55;6.53;;;;;;;;;;5053785;28;20025;-85
2022/05/06 09:43:06;;;;;;;12.65;6.70;;;;;;;;;;5055260;28;20028;-86
2022/05/06 09:45:33;;;;;;;10.88;6.97;;;;;;;;;;5039789;28;20037;-84
2022/05/06 09:48:03;;;;;;;18.42;7.05;;;;;;;;;;5054532;28;20481;-85
2022/05/06 09:50:45;;;;;;;11.80;7.22;;;;;;;;;;5069835;28;20037;-83
2022/05/06 09:53:13;;;;;;;13.65;6.68;;;;;;;;;;5037055;28;20124;-85
2022/05/06 09:55:41;;;;;;;10.50;7.00;;;;;;;;;;5038519;28;20028;-86
2022/05/06 09:58:08;;;;;;;11.30;6.93;;;;;;;;;;5054512;28;20029;-82
2022/05/06 10:00:33;;;;;;;12.00;6.68;;;;;;;;;;5054191;28;20358;-85
2022/05/06 10:03:00;;;;;;;11.40;7.00;;;;;;;;;;5037312;28;20025;-85
2022/05/06 10:05:27;;;;;;;12.57;6.78;;;;;;;;;;5054847;28;20037;-86
2022/05/06 10:07:57;;;;;;;10.85;7.10;;;;;;;;;;5054371;28;20075;-82
2022/05/06 10:10:25;;;;;;;14.48;7.00;;;;;;;;;;5037549;28;20048;-83
2022/05/06 10:13:01;;;;;;;14.93;6.72;;;;;;;;;;5037931;28;20063;-84
2022/05/06 10:15:28;;;;;;;8.65;6.38;;;;;;;;;;5040101;28;20045;-86
2022/05/06 10:18:02;;;;;;;10.48;6.60;;;;;;;;;;5037156;28;20457;-82
2022/05/06 10:20:33;;;;;;;9.27;6.32;;;;;;;;;;5038896;28;20108;-85
2022/05/06 10:23:08;;;;;;;9.95;6.05;;;;;;;;;;5054781;28;20115;-84
2022/05/06 10:25:43;;;;;;;10.38;6.32;;;;;;;;;;5052924;28;20040;-85
2022/05/06 10:34:16;;;;;;;11.73;6.70;;;;;;;;;;5054106;28;20036;-83
2022/05/06 10:36:41;;;;;;;10.55;6.50;;;;;;;;;;5060664;28;20033;-84
2022/05/06 10:39:33;;;;;;;11.45;6.43;;;;;;;;;;5053289;28;20029;-85
2022/05/06 10:42:05;;;;;;;9.23;6.38;;;;;;;;;;5053160;28;20029;-85
2022/05/06 10:44:37;;;;;;;7.53;5.63;;;;;;;;;;5053691;28;20040;-86
2022/05/06 10:47:23;;;;;;;9.48;5.57;;;;;;;;;;5053391;28;20025;-81
2022/05/06 10:49:52;;;;;;;8.02;5.88;;;;;;;;;;5053011;28;20123;-84
2022/05/06 10:52:23;;;;;;;7.60;5.70;;;;;;;;;;5038484;28;20032;-83
2022/05/06 10:54:54;;;;;;;11.65;6.40;;;;;;;;;;5053796;28;20036;-84
2022/05/06 10:57:23;;;;;;;8.63;5.88;;;;;;;;;;5047773;28;20041;-85
2022/05/06 11:00:03;;;;;;;10.52;5.63;;;;;;;;;;5063334;28;20037;-82
2022/05/06 11:02:30;;;;;;;10.05;5.60;;;;;;;;;;5023486;28;20025;-83
2022/05/06 11:04:57;;;;;;;9.77;5.75;;;;;;;;;;5063425;28;20075;-85
2022/05/06 11:07:23;;;;;;;8.80;6.20;;;;;;;;;;5062841;28;20041;-83
2022/05/06 11:09:48;;;;;;;10.98;6.03;;;;;;;;;;5045598;28;20036;-83
2022/05/06 11:12:33;;;;;;;7.30;4.82;;;;;;;;;;5052650;28;20079;-82
2022/05/06 11:14:59;;;;;;;7.53;5.60;;;;;;;;;;5036275;28;20044;-83
2022/05/06 11:17:25;;;;;;;12.38;5.50;;;;;;;;;;5059786;28;20035;-84
2022/05/06 11:19:54;;;;;;;16.98;6.25;;;;;;;;;;5052501;28;20115;-82
2022/05/06 11:22:20;;;;;;;14.75;6.03;;;;;;;;;;5036648;28;20025;-84
2022/05/06 11:24:46;;;;;;;10.55;5.68;;;;;;;;;;5035841;28;20075;-83
2022/05/06 11:27:16;;;;;;;11.15;5.63;;;;;;;;;;5052260;28;20029;-85
2022/05/06 11:29:57;;;;;;;9.30;5.90;;;;;;;;;;5052353;28;20025;-85
2022/05/06 11:32:27;;;;;;;8.70;4.68;;;;;;;;;;5036037;28;20079;-85
2022/05/06 11:34:59;;;;;;;11.90;5.85;;;;;;;;;;5052079;28;20517;-85
2022/05/06 11:37:26;;;;;;;11.20;5.68;;;;;;;;;;5058882;28;20063;-82
2022/05/06 11:39:51;;;;;;;8.90;5.85;;;;;;;;;;5052394;28;20025;-84
2022/05/06 11:42:21;;;;;;;13.68;5.70;;;;;;;;;;5054868;28;20051;-83
2022/05/06 11:47:41;;;;;;;8.35;5.30;;;;;;;;;;5056103;28;20036;-82
2022/05/06 11:50:07;;;;;;;8.63;5.88;;;;;;;;;;5039661;28;20036;-82
2022/05/06 11:52:33;;;;;;;7.60;5.13;;;;;;;;;;5039741;28;20457;-85
2022/05/06 11:54:59;;;;;;;11.35;5.50;;;;;;;;;;5055722;28;20029;-83
2022/05/06 11:57:24;;;;;;;7.75;5.05;;;;;;;;;;5062622;28;20067;-82
2022/05/06 11:59:50;;;;;;;14.85;5.80;;;;;;;;;;5039120;28;20032;-81
2022/05/06 12:02:15;;;;;;;7.47;5.00;;;;;;;;;;5039052;28;20519;-80
2022/05/06 12:04:41;;;;;;;9.90;4.65;;;;;;;;;;5055783;28;20561;-86
2022/05/06 12:07:06;;;;;;;10.38;5.00;;;;;;;;;;5056472;28;20374;-83
2022/05/06 12:09:41;;;;;;;7.45;4.90;;;;;;;;;;5055869;28;20040;-83
2022/05/06 12:12:07;;;;;;;8.52;4.82;;;;;;;;;;5056603;28;20439;-83
2022/05/06 12:14:33;;;;;;;6.07;4.07;;;;;;;;;;5055876;28;20017;-85
2022/05/06 12:17:00;;;;;;;7.97;4.57;;;;;;;;;;5041433;28;20025;-86
2022/05/06 12:19:33;;;;;;;11.68;4.85;;;;;;;;;;5026835;28;20127;-85
2022/05/06 12:22:09;;;;;;;7.38;4.93;;;;;;;;;;5055918;28;20369;-83
2022/05/06 12:24:48;;;;;;;7.57;4.47;;;;;;;;;;5056699;28;20040;-83
2022/05/06 12:27:26;;;;;;;9.35;5.30;;;;;;;;;;5038821;28;20017;-86
2022/05/06 12:29:52;;;;;;;11.48;4.38;;;;;;;;;;5055086;28;20036;-84
2022/05/06 12:32:18;;;;;;;7.63;4.72;;;;;;;;;;5022176;28;20025;-83
2022/05/06 12:34:44;;;;;;;6.75;4.22;;;;;;;;;;5038937;28;20500;-85
2022/05/06 12:37:19;;;;;;;5.32;4.38;;;;;;;;;;5058324;28;20029;-83
2022/05/06 12:39:46;;;;;;;9.30;4.57;;;;;;;;;;5025888;28;20033;-85
2022/05/06 12:42:15;;;;;;;7.30;4.47;;;;;;;;;;5055185;28;20031;-83
2022/05/06 12:44:41;;;;;;;11.45;4.35;;;;;;;;;;5056397;28;20071;-85
2022/05/06 12:50:05;;;;;;;6.35;3.85;;;;;;;;;;5054995;28;20465;-84
2022/05/06 12:52:35;;;;;;;7.20;4.45;;;;;;;;;;5055106;28;20102;-83
2022/05/06 12:55:01;;;;;;;5.05;4.32;;;;;;;;;;5054216;28;20029;-82
2022/05/06 12:57:26;;;;;;;5.13;4.20;;;;;;;;;;5038672;28;20036;-85
2022/05/06 12:59:52;;;;;;;10.07;4.40;;;;;;;;;;5057156;28;20025;-85
2022/05/06 13:02:17;;;;;;;5.93;4.10;;;;;;;;;;5054776;28;20056;-85
2022/05/06 13:04:43;;;;;;;6.82;3.72;;;;;;;;;;5054437;28;20075;-87
2022/05/06 13:07:08;;;;;;;8.32;4.40;;;;;;;;;;5054731;28;20036;-84
2022/05/06 13:09:34;;;;;;;10.57;4.60;;;;;;;;;;5037741;28;20033;-84
2022/05/06 13:12:00;;;;;;;6.72;4.47;;;;;;;;;;5054305;28;20029;-83
2022/05/06 13:14:25;;;;;;;12.48;4.43;;;;;;;;;;5037874;28;20366;-83
2022/05/06 13:16:54;;;;;;;8.35;4.13;;;;;;;;;;5055432;28;20033;-82
2022/05/06 13:19:19;;;;;;;10.23;4.55;;;;;;;;;;5059948;28;20072;-83
2022/05/06 13:21:45;;;;;;;7.80;4.55;;;;;;;;;;5056015;28;20067;-83
2022/05/06 13:24:10;;;;;;;4.75;3.90;;;;;;;;;;5054083;28;20051;-81
2022/05/06 13:26:36;;;;;;;7.47;4.10;;;;;;;;;;5054233;28;20021;-82
2022/05/06 13:29:05;;;;;;;6.88;3.92;;;;;;;;;;5055236;28;20025;-84
2022/05/06 13:31:31;;;;;;;7.18;4.45;;;;;;;;;;5054276;28;20438;-84
2022/05/06 13:33:56;;;;;;;6.15;4.40;;;;;;;;;;5037527;28;20040;-84
2022/05/06 13:36:22;;;;;;;8.85;4.43;;;;;;;;;;5055123;28;20039;-83
2022/05/06 13:38:47;;;;;;;6.35;3.95;;;;;;;;;;5059703;28;20108;-85
2022/05/06 13:41:14;;;;;;;6.18;4.40;;;;;;;;;;5054733;28;20040;-84
2022/05/06 13:43:40;;;;;;;7.50;4.70;;;;;;;;;;5021099;28;20029;-86
2022/05/06 13:46:05;;;;;;;8.80;4.63;;;;;;;;;;5053935;28;20031;-83
2022/05/06 13:48:31;;;;;;;7.22;3.97;;;;;;;;;;5055149;28;20029;-83
2022/05/06 13:50:56;;;;;;;7.95;4.55;;;;;;;;;;5053672;28;20037;-85
2022/05/06 13:53:22;;;;;;;10.05;4.45;;;;;;;;;;5054856;28;20036;-87
2022/05/06 14:01:16;;;;;;;8.60;3.80;;;;;;;;;;5057189;28;20047;-83
2022/05/06 14:03:41;;;;;;;5.35;4.25;;;;;;;;;;5055048;28;20036;-86
2022/05/06 14:06:07;;;;;;;8.65;4.03;;;;;;;;;;5036966;28;20037;-83
2022/05/06 14:08:32;;;;;;;6.90;4.35;;;;;;;;;;5053696;28;20063;-82
2022/05/06 14:10:58;;;;;;;7.00;4.30;;;;;;;;;;5036817;28;20367;-86
2022/05/06 14:13:23;;;;;;;12.25;4.32;;;;;;;;;;5053486;28;20114;-85
2022/05/06 14:15:49;;;;;;;4.68;4.05;;;;;;;;;;5053461;28;20401;-84
2022/05/06 14:18:14;;;;;;;9.18;4.38;;;;;;;;;;5054232;28;20031;-83
2022/05/06 14:20:40;;;;;;;6.53;4.07;;;;;;;;;;5059096;28;20040;-83
2022/05/06 14:23:06;;;;;;;7.88;4.38;;;;;;;;;;5054142;28;20029;-81
2022/05/06 14:25:31;;;;;;;6.57;4.47;;;;;;;;;;5053216;28;20033;-81
2022/05/06 14:27:57;;;;;;;8.75;4.20;;;;;;;;;;5053022;28;20112;-84
2022/05/06 14:30:22;;;;;;;9.00;4.22;;;;;;;;;;5053316;28;20039;-83
2022/05/06 14:32:48;;;;;;;5.35;3.85;;;;;;;;;;5020274;28;20101;-83
2022/05/06 14:35:18;;;;;;;7.50;4.15;;;;;;;;;;5052919;28;20036;-82
2022/05/06 14:37:44;;;;;;;6.45;4.32;;;;;;;;;;5052915;28;20445;-85
2022/05/06 14:40:10;;;;;;;6.68;4.35;;;;;;;;;;5039945;28;20366;-86
2022/05/06 14:42:36;;;;;;;8.18;4.55;;;;;;;;;;5037615;28;20029;-83
2022/05/06 14:45:01;;;;;;;7.82;4.78;;;;;;;;;;5053013;28;20036;-84
2022/05/06 14:47:27;;;;;;;6.75;4.30;;;;;;;;;;5053044;28;20028;-84
2022/05/06 14:49:52;;;;;;;6.50;4.57;;;;;;;;;;5054046;28;20032;-85
2022/05/06 14:52:19;;;;;;;20.13;4.53;;;;;;;;;;5053268;28;20033;-83
2022/05/06 14:54:45;;;;;;;6.15;4.20;;;;;;;;;;5053452;28;20132;-83
2022/05/06 14:57:11;;;;;;;5.63;4.55;;;;;;;;;;5053519;28;20466;-85
2022/05/06 14:59:36;;;;;;;11.02;4.28;;;;;;;;;;5056515;28;20078;-83
2022/05/06 15:02:02;;;;;;;7.43;4.50;;;;;;;;;;5053941;28;20033;-85
2022/05/06 15:04:27;;;;;;;10.20;4.65;;;;;;;;;;5036745;28;20037;-84
2022/05/06 15:06:53;;;;;;;11.18;4.93;;;;;;;;;;5054080;28;20028;-84
2022/05/06 15:09:22;;;;;;;12.63;4.90;;;;;;;;;;5054162;28;20033;-83
2022/05/06 15:11:48;;;;;;;10.32;4.50;;;;;;;;;;5052769;28;20029;-83
2022/05/06 15:14:14;;;;;;;8.10;4.40;;;;;;;;;;5036141;28;20370;-85
2022/05/06 15:16:39;;;;;;;11.93;4.90;;;;;;;;;;5053962;28;20033;-82
2022/05/06 15:21:48;;;;;;;9.25;5.00;;;;;;;;;;5058034;28;20059;-84